createdAt,value
2018-01-06T00:00:48.110Z,93.90
2018-01-06T00:03:15.610Z,93.90
2018-01-06T00:05:43.089Z,93.90
2018-01-06T00:08:10.590Z,93.80
2018-01-06T00:10:38.081Z,93.90
2018-01-06T00:13:05.570Z,93.90
2018-01-06T00:15:33.050Z,93.90
2018-01-06T00:18:01.307Z,93.90
2018-01-06T00:20:29.546Z,93.90
2018-01-06T00:22:57.054Z,93.90
2018-01-06T00:25:25.347Z,93.90
2018-01-06T00:27:52.822Z,93.90
2018-01-06T00:30:20.303Z,93.90
2018-01-06T00:32:47.770Z,93.90
2018-01-06T00:35:15.270Z,93.90
2018-01-06T00:37:42.740Z,93.90
2018-01-06T00:40:10.211Z,93.80
2018-01-06T00:42:37.700Z,93.80
2018-01-06T00:45:05.170Z,93.80
2018-01-06T00:47:32.670Z,93.90
2018-01-06T00:50:00.146Z,93.90
2018-01-06T00:52:27.611Z,93.90
2018-01-06T00:54:55.106Z,93.90
2018-01-06T00:57:22.578Z,93.90
2018-01-06T00:59:50.850Z,93.90
2018-01-06T01:02:19.088Z,93.90
2018-01-06T01:04:46.552Z,93.90
2018-01-06T01:07:14.030Z,93.90
2018-01-06T01:09:41.518Z,93.90
2018-01-06T01:12:09.762Z,93.90
2018-01-06T01:14:37.282Z,93.90
2018-01-06T01:17:04.745Z,93.90
2018-01-06T01:19:32.214Z,93.90
2018-01-06T01:21:59.731Z,93.90
2018-01-06T01:24:27.970Z,93.90
2018-01-06T01:26:55.487Z,93.90
2018-01-06T01:29:22.978Z,93.90
2018-01-06T01:31:50.498Z,93.90
2018-01-06T01:34:18.741Z,93.90
2018-01-06T01:36:46.210Z,93.90
2018-01-06T01:39:14.461Z,93.90
2018-01-06T01:41:41.933Z,93.90
2018-01-06T01:44:09.439Z,93.90
2018-01-06T01:46:36.899Z,93.90
2018-01-06T01:49:04.366Z,93.90
2018-01-06T01:51:31.869Z,93.90
2018-01-06T01:53:59.343Z,93.90
2018-01-06T01:56:27.627Z,93.90
2018-01-06T01:58:55.847Z,93.90
2018-01-06T02:01:23.328Z,93.90
2018-01-06T02:03:50.821Z,93.90
2018-01-06T02:06:18.304Z,93.90
2018-01-06T02:08:45.797Z,93.90
2018-01-06T02:11:13.279Z,93.80
2018-01-06T02:13:41.502Z,93.90
2018-01-06T02:16:09.007Z,93.90
2018-01-06T02:18:36.458Z,93.90
2018-01-06T02:21:03.968Z,93.90
2018-01-06T02:23:31.434Z,93.90
2018-01-06T02:25:58.928Z,93.90
2018-01-06T02:28:26.427Z,93.90
2018-01-06T02:30:53.926Z,93.90
2018-01-06T02:33:21.390Z,93.90
2018-01-06T02:35:48.883Z,93.90
2018-01-06T02:38:17.140Z,93.90
2018-01-06T02:40:45.508Z,93.90
2018-01-06T02:43:12.981Z,93.90
2018-01-06T02:45:40.442Z,93.90
2018-01-06T02:48:07.962Z,93.90
2018-01-06T02:50:35.450Z,93.80
2018-01-06T02:53:03.801Z,93.80
2018-01-06T02:55:31.290Z,93.80
2018-01-06T02:57:58.778Z,93.80
2018-01-06T03:00:27.002Z,93.80
2018-01-06T03:02:54.541Z,93.80
2018-01-06T03:05:21.996Z,93.80
2018-01-06T03:07:49.499Z,93.90
2018-01-06T03:10:17.017Z,93.80
2018-01-06T03:12:44.509Z,93.80
2018-01-06T03:15:11.962Z,93.90
2018-01-06T03:17:39.483Z,93.90
2018-01-06T03:20:06.990Z,93.90
2018-01-06T03:22:34.475Z,93.90
2018-01-06T03:25:02.701Z,93.90
2018-01-06T03:27:30.207Z,93.90
2018-01-06T03:29:57.670Z,93.90
2018-01-06T03:32:25.898Z,93.90
2018-01-06T03:34:53.390Z,93.90
2018-01-06T03:37:20.858Z,93.90
2018-01-06T03:39:49.140Z,93.90
2018-01-06T03:42:17.379Z,93.90
2018-01-06T03:44:44.840Z,93.90
2018-01-06T03:47:12.321Z,93.90
2018-01-06T03:49:39.821Z,93.90
2018-01-06T03:52:07.279Z,93.80
2018-01-06T03:54:34.792Z,93.80
2018-01-06T03:57:02.289Z,93.80
2018-01-06T03:59:29.780Z,93.80
2018-01-06T04:01:57.250Z,93.80
2018-01-06T04:04:24.749Z,93.90
2018-01-06T04:06:53.002Z,93.80
2018-01-06T04:09:20.491Z,93.80
2018-01-06T04:11:47.957Z,93.80
2018-01-06T04:14:15.466Z,93.80
2018-01-06T04:16:42.965Z,93.80
2018-01-06T04:19:11.231Z,93.80
2018-01-06T04:21:39.468Z,93.80
2018-01-06T04:24:06.940Z,93.80
2018-01-06T04:26:34.449Z,93.80
2018-01-06T04:29:01.913Z,93.80
2018-01-06T04:31:29.414Z,93.80
2018-01-06T04:33:56.922Z,93.80
2018-01-06T04:36:24.413Z,93.80
2018-01-06T04:38:51.928Z,93.80
2018-01-06T04:41:20.182Z,93.80
2018-01-06T04:43:47.720Z,93.80
2018-01-06T04:46:15.215Z,93.80
2018-01-06T04:48:43.443Z,93.80
2018-01-06T04:51:10.943Z,93.80
2018-01-06T04:53:39.232Z,93.80
2018-01-06T04:56:06.681Z,93.80
2018-01-06T04:58:34.941Z,93.80
2018-01-06T05:01:02.430Z,93.80
2018-01-06T05:03:30.721Z,93.80
2018-01-06T05:05:58.203Z,93.80
2018-01-06T05:08:25.677Z,93.80
2018-01-06T05:10:53.197Z,93.80
2018-01-06T05:13:20.666Z,93.80
2018-01-06T05:15:48.170Z,93.90
2018-01-06T05:18:15.659Z,93.80
2018-01-06T05:20:43.957Z,93.80
2018-01-06T05:23:11.431Z,93.80
2018-01-06T05:25:38.890Z,93.80
2018-01-06T05:28:06.390Z,93.80
2018-01-06T05:30:33.842Z,93.80
2018-01-06T05:33:01.356Z,93.80
2018-01-06T05:35:28.819Z,93.80
2018-01-06T05:37:56.339Z,93.70
2018-01-06T05:40:24.597Z,93.70
2018-01-06T05:42:52.065Z,93.70
2018-01-06T05:45:20.339Z,93.70
2018-01-06T05:47:48.610Z,93.70
2018-01-06T05:50:16.111Z,93.70
2018-01-06T05:52:43.583Z,93.70
2018-01-06T05:55:11.057Z,93.70
2018-01-06T05:57:38.546Z,93.70
2018-01-06T06:00:06.799Z,93.70
2018-01-06T06:02:34.285Z,93.70
2018-01-06T06:05:02.514Z,93.80
2018-01-06T06:07:30.026Z,93.80
2018-01-06T06:09:58.262Z,93.80
2018-01-06T06:12:25.730Z,93.80
2018-01-06T06:14:53.221Z,93.80
2018-01-06T06:17:21.461Z,93.70
2018-01-06T06:19:48.961Z,93.70
2018-01-06T06:22:17.191Z,93.70
2018-01-06T06:24:44.691Z,93.70
2018-01-06T06:27:12.926Z,93.80
2018-01-06T06:29:40.425Z,93.80
2018-01-06T06:32:08.646Z,93.80
2018-01-06T06:34:36.118Z,93.80
2018-01-06T06:37:03.622Z,93.80
2018-01-06T06:39:31.861Z,93.80
2018-01-06T06:41:59.359Z,93.80
2018-01-06T06:44:27.594Z,93.80
2018-01-06T06:46:56.300Z,93.80
2018-01-06T06:49:23.774Z,93.80
2018-01-06T06:51:52.044Z,93.80
2018-01-06T06:54:20.329Z,93.80
2018-01-06T06:56:47.796Z,93.80
2018-01-06T06:59:16.023Z,93.80
2018-01-06T07:01:43.542Z,93.80
2018-01-06T07:04:11.007Z,93.80
2018-01-06T07:06:38.540Z,93.80
2018-01-06T07:09:06.791Z,93.80
2018-01-06T07:11:34.308Z,93.80
2018-01-06T07:14:01.776Z,93.80
2018-01-06T07:16:29.244Z,93.80
2018-01-06T07:18:56.739Z,93.80
2018-01-06T07:21:24.197Z,93.80
2018-01-06T07:23:52.469Z,93.80
2018-01-06T07:26:19.982Z,93.80
2018-01-06T07:28:47.501Z,93.80
2018-01-06T07:31:15.741Z,93.90
2018-01-06T07:33:43.222Z,93.90
2018-01-06T07:36:10.715Z,93.90
2018-01-06T07:38:38.228Z,93.90
2018-01-06T07:41:05.701Z,93.90
2018-01-06T07:43:33.190Z,89.00
2018-01-06T07:46:00.681Z,89.30
2018-01-06T07:48:28.194Z,87.80
2018-01-06T07:50:56.447Z,88.20
2018-01-06T07:53:23.946Z,88.20
2018-01-06T07:55:51.524Z,88.50
2018-01-06T07:58:19.019Z,88.60
2018-01-06T08:00:46.503Z,94.00
2018-01-06T08:03:14.747Z,94.10
2018-01-06T08:05:42.260Z,94.10
2018-01-06T08:08:09.738Z,94.10
2018-01-06T08:10:37.222Z,94.10
2018-01-06T08:13:04.709Z,94.10
2018-01-06T08:15:32.987Z,94.10
2018-01-06T08:18:00.487Z,94.10
2018-01-06T08:20:27.957Z,94.10
2018-01-06T08:22:55.436Z,94.10
2018-01-06T08:25:22.966Z,94.10
2018-01-06T08:27:50.458Z,94.10
2018-01-06T08:30:17.962Z,94.10
2018-01-06T08:32:45.427Z,94.10
2018-01-06T08:35:12.897Z,94.10
2018-01-06T08:37:40.400Z,94.10
2018-01-06T08:40:07.911Z,94.10
2018-01-06T08:42:35.395Z,89.40
2018-01-06T08:45:02.864Z,89.60
2018-01-06T08:47:30.338Z,87.80
2018-01-06T08:49:57.857Z,87.90
2018-01-06T08:52:25.303Z,88.20
2018-01-06T08:54:52.810Z,88.40
2018-01-06T08:57:21.068Z,88.60
2018-01-06T08:59:48.563Z,88.60
2018-01-06T09:02:16.841Z,88.80
2018-01-06T09:04:45.077Z,88.90
2018-01-06T09:07:12.567Z,88.90
2018-01-06T09:09:40.845Z,89.00
2018-01-06T09:12:08.358Z,89.00
2018-01-06T09:14:35.860Z,89.00
2018-01-06T09:17:03.363Z,89.00
2018-01-06T09:19:30.870Z,89.00
2018-01-06T09:21:58.365Z,89.10
2018-01-06T09:24:26.641Z,89.10
2018-01-06T09:26:54.135Z,89.10
2018-01-06T09:29:21.606Z,89.20
2018-01-06T09:31:49.114Z,89.20
2018-01-06T09:34:16.623Z,89.10
2018-01-06T09:36:44.123Z,89.10
2018-01-06T09:39:12.424Z,89.10
2018-01-06T09:41:39.914Z,89.10
2018-01-06T09:44:07.382Z,89.10
2018-01-06T09:46:34.878Z,89.00
2018-01-06T09:49:03.124Z,89.20
2018-01-06T09:51:32.130Z,88.90
2018-01-06T09:54:00.574Z,89.00
2018-01-06T09:56:28.074Z,89.00
2018-01-06T09:58:56.338Z,89.10
2018-01-06T10:01:23.830Z,89.10
2018-01-06T10:03:51.398Z,89.10
2018-01-06T10:06:18.900Z,89.10
2018-01-06T10:08:46.405Z,89.10
2018-01-06T10:11:13.899Z,89.20
2018-01-06T10:13:41.425Z,89.10
2018-01-06T10:16:09.677Z,89.30
2018-01-06T10:18:37.186Z,89.30
2018-01-06T10:21:04.685Z,89.30
2018-01-06T10:23:32.183Z,89.30
2018-01-06T10:25:59.683Z,89.30
2018-01-06T10:28:27.190Z,89.30
2018-01-06T10:30:55.465Z,89.20
2018-01-06T10:33:22.940Z,89.20
2018-01-06T10:35:51.169Z,88.90
2018-01-06T10:38:18.668Z,88.60
2018-01-06T10:40:46.181Z,88.40
2018-01-06T10:43:13.670Z,88.30
2018-01-06T10:45:41.928Z,89.40
2018-01-06T10:48:09.447Z,89.40
2018-01-06T10:50:36.936Z,88.50
2018-01-06T10:53:04.750Z,88.20
2018-01-06T10:55:32.246Z,88.00
2018-01-06T10:57:59.706Z,88.00
2018-01-06T11:00:32.918Z,88.20
2018-01-06T11:03:00.538Z,87.70
2018-01-06T11:05:28.041Z,88.30
2018-01-06T11:07:55.517Z,88.10
2018-01-06T11:10:23.819Z,88.60
2018-01-06T11:12:51.291Z,88.60
2018-01-06T11:15:18.781Z,88.80
2018-01-06T11:17:46.257Z,88.70
2018-01-06T11:20:14.525Z,87.80
2018-01-06T11:22:42.066Z,87.80
2018-01-06T11:25:09.570Z,87.50
2018-01-06T11:27:37.802Z,87.40
2018-01-06T11:30:05.278Z,87.40
2018-01-06T11:32:32.791Z,87.70
2018-01-06T11:35:00.274Z,88.00
2018-01-06T11:37:27.757Z,87.60
2018-01-06T11:39:55.334Z,88.10
2018-01-06T11:42:22.798Z,87.60
2018-01-06T11:44:51.041Z,87.30
2018-01-06T11:47:18.518Z,87.30
2018-01-06T11:49:45.973Z,87.10
2018-01-06T11:52:13.492Z,87.00
2018-01-06T11:54:40.962Z,87.10
2018-01-06T11:57:08.459Z,86.90
2018-01-06T11:59:36.702Z,86.90
2018-01-06T12:02:04.251Z,86.90
2018-01-06T12:04:31.719Z,87.50
2018-01-06T12:06:59.207Z,87.60
2018-01-06T12:09:26.681Z,87.40
2018-01-06T12:11:54.935Z,88.30
2018-01-06T12:14:22.463Z,88.30
2018-01-06T12:16:49.922Z,86.80
2018-01-06T12:19:17.386Z,84.60
2018-01-06T12:21:44.926Z,84.00
2018-01-06T12:24:12.403Z,84.00
2018-01-06T12:26:40.303Z,83.40
2018-01-06T12:29:07.807Z,85.00
2018-01-06T12:31:35.281Z,86.00
2018-01-06T12:34:02.777Z,85.80
2018-01-06T12:36:30.273Z,86.20
2018-01-06T12:38:58.534Z,85.00
2018-01-06T12:41:26.767Z,85.30
2018-01-06T12:43:54.274Z,85.30
2018-01-06T12:46:21.859Z,84.50
2018-01-06T12:48:49.375Z,85.80
2018-01-06T12:51:17.643Z,85.30
2018-01-06T12:53:45.119Z,85.30
2018-01-06T12:56:13.375Z,84.70
2018-01-06T12:58:40.854Z,84.70
2018-01-06T13:01:09.152Z,85.60
2018-01-06T13:03:36.619Z,85.60
2018-01-06T13:06:04.115Z,85.90
2018-01-06T13:08:31.597Z,85.40
2018-01-06T13:10:59.110Z,85.30
2018-01-06T13:13:26.729Z,85.70
2018-01-06T13:15:54.175Z,86.00
2018-01-06T13:18:22.430Z,86.30
2018-01-06T13:20:49.891Z,86.30
2018-01-06T13:23:17.388Z,86.00
2018-01-06T13:25:45.638Z,84.80
2018-01-06T13:28:13.211Z,84.80
2018-01-06T13:30:40.661Z,85.50
2018-01-06T13:33:08.122Z,85.90
2018-01-06T13:35:36.403Z,85.90
2018-01-06T13:38:04.627Z,85.80
2018-01-06T13:40:32.140Z,85.80
2018-01-06T13:42:59.621Z,85.30
2018-01-06T13:45:27.140Z,86.10
2018-01-06T13:47:54.594Z,86.20
2018-01-06T13:50:22.086Z,86.30
2018-01-06T13:52:50.437Z,86.10
2018-01-06T13:55:17.893Z,86.10
2018-01-06T13:57:45.435Z,86.00
2018-01-06T14:00:12.898Z,86.30
2018-01-06T14:02:40.386Z,86.30
2018-01-06T14:05:08.659Z,86.00
2018-01-06T14:07:36.150Z,86.00
2018-01-06T14:10:03.640Z,85.50
2018-01-06T14:12:31.177Z,84.80
2018-01-06T14:14:58.752Z,85.20
2018-01-06T14:17:26.202Z,85.10
2018-01-06T14:19:53.710Z,85.60
2018-01-06T14:22:21.209Z,85.70
2018-01-06T14:24:48.734Z,85.80
2018-01-06T14:27:16.231Z,86.00
2018-01-06T14:29:43.722Z,85.70
2018-01-06T14:32:11.187Z,86.50
2018-01-06T14:34:38.693Z,86.40
2018-01-06T14:37:06.181Z,85.30
2018-01-06T14:39:33.695Z,85.30
2018-01-06T14:42:01.995Z,86.30
2018-01-06T14:44:29.473Z,86.30
2018-01-06T14:46:56.971Z,86.20
2018-01-06T14:49:24.489Z,86.40
2018-01-06T14:51:51.982Z,86.00
2018-01-06T14:54:19.490Z,86.00
2018-01-06T14:56:46.982Z,85.40
2018-01-06T14:59:14.487Z,85.10
2018-01-06T15:01:42.732Z,85.50
2018-01-06T15:04:10.222Z,85.50
2018-01-06T15:06:38.464Z,85.80
2018-01-06T15:09:05.966Z,85.80
2018-01-06T15:11:33.479Z,85.80
2018-01-06T15:14:00.966Z,85.80
2018-01-06T15:16:29.202Z,86.00
2018-01-06T15:18:56.702Z,86.00
2018-01-06T15:21:24.942Z,86.40
2018-01-06T15:23:52.459Z,86.40
2018-01-06T15:26:19.941Z,86.40
2018-01-06T15:28:47.506Z,86.60
2018-01-06T15:31:15.070Z,86.40
2018-01-06T15:33:42.592Z,86.60
2018-01-06T15:36:10.090Z,86.90
2018-01-06T15:38:37.599Z,87.10
2018-01-06T15:41:05.890Z,86.10
2018-01-06T15:43:33.375Z,86.10
2018-01-06T15:46:00.891Z,86.60
2018-01-06T15:48:29.122Z,86.90
2018-01-06T15:50:56.583Z,87.00
2018-01-06T15:53:24.083Z,86.90
2018-01-06T15:55:52.319Z,86.70
2018-01-06T15:58:19.825Z,86.70
2018-01-06T16:00:48.073Z,86.90
2018-01-06T16:03:16.343Z,87.10
2018-01-06T16:05:44.601Z,87.10
2018-01-06T16:08:12.102Z,87.00
2018-01-06T16:10:40.383Z,86.80
2018-01-06T16:13:08.644Z,86.60
2018-01-06T16:15:36.161Z,86.60
2018-01-06T16:18:03.660Z,86.90
2018-01-06T16:20:31.131Z,87.00
2018-01-06T16:22:59.379Z,87.10
2018-01-06T16:25:26.857Z,87.10
2018-01-06T16:27:55.146Z,86.60
2018-01-06T16:30:23.384Z,86.70
2018-01-06T16:32:50.897Z,86.70
2018-01-06T16:35:18.390Z,86.70
2018-01-06T16:37:45.847Z,87.00
2018-01-06T16:40:13.355Z,87.10
2018-01-06T16:42:41.615Z,87.10
2018-01-06T16:45:09.134Z,87.10
2018-01-06T16:47:36.620Z,87.00
2018-01-06T16:50:04.878Z,87.10
2018-01-06T16:52:32.365Z,87.10
2018-01-06T16:54:59.851Z,87.60
2018-01-06T16:57:28.146Z,89.30
2018-01-06T16:59:55.625Z,89.20
2018-01-06T17:02:23.117Z,89.30
2018-01-06T17:04:50.633Z,89.20
2018-01-06T17:07:18.120Z,89.30
2018-01-06T17:09:45.667Z,89.10
2018-01-06T17:12:13.160Z,89.00
2018-01-06T17:14:40.658Z,89.00
2018-01-06T17:17:08.160Z,88.60
2018-01-06T17:19:35.662Z,88.10
2018-01-06T17:22:03.938Z,87.50
2018-01-06T17:24:32.205Z,87.90
2018-01-06T17:27:00.530Z,87.90
2018-01-06T17:29:28.011Z,87.90
2018-01-06T17:31:55.542Z,87.70
2018-01-06T17:34:23.043Z,87.60
2018-01-06T17:36:50.515Z,88.60
2018-01-06T17:39:19.082Z,88.40
2018-01-06T17:41:46.592Z,88.40
2018-01-06T17:44:14.058Z,88.20
2018-01-06T17:46:41.554Z,87.90
2018-01-06T17:49:09.048Z,87.50
2018-01-06T17:51:37.315Z,87.00
2018-01-06T17:54:05.559Z,86.90
2018-01-06T17:56:33.080Z,86.90
2018-01-06T17:59:00.567Z,87.10
2018-01-06T18:01:28.064Z,86.90
2018-01-06T18:03:56.467Z,87.30
2018-01-06T18:06:24.520Z,87.30
2018-01-06T18:08:52.047Z,93.30
2018-01-06T18:11:19.509Z,93.20
2018-01-06T18:13:46.980Z,93.20
2018-01-06T18:16:14.503Z,93.30
2018-01-06T18:18:41.973Z,93.30
2018-01-06T18:21:09.499Z,93.40
2018-01-06T18:23:37.077Z,93.30
2018-01-06T18:26:04.587Z,93.20
2018-01-06T18:28:32.113Z,93.20
2018-01-06T18:30:59.591Z,93.30
2018-01-06T18:33:27.098Z,93.30
2018-01-06T18:35:54.599Z,93.10
2018-01-06T18:38:22.071Z,93.10
2018-01-06T18:40:50.481Z,93.10
2018-01-06T18:43:17.967Z,92.90
2018-01-06T18:45:45.468Z,93.20
2018-01-06T18:48:12.940Z,93.10
2018-01-06T18:50:40.451Z,93.20
2018-01-06T18:53:09.047Z,93.20
2018-01-06T18:55:37.217Z,93.00
2018-01-06T18:58:04.694Z,92.60
2018-01-06T19:00:32.170Z,93.00
2018-01-06T19:02:59.674Z,92.80
2018-01-06T19:05:27.170Z,92.90
2018-01-06T19:07:54.634Z,93.00
2018-01-06T19:10:22.138Z,93.00
2018-01-06T19:12:49.656Z,92.90
2018-01-06T19:15:17.158Z,92.80
2018-01-06T19:17:44.676Z,92.80
2018-01-06T19:20:12.166Z,92.50
2018-01-06T19:22:40.424Z,92.80
2018-01-06T19:25:08.763Z,92.70
2018-01-06T19:27:36.270Z,92.70
2018-01-06T19:30:04.509Z,92.90
2018-01-06T19:32:32.010Z,92.90
2018-01-06T19:34:59.498Z,92.80
2018-01-06T19:37:27.010Z,92.90
2018-01-06T19:39:55.402Z,92.90
2018-01-06T19:42:23.650Z,92.90
2018-01-06T19:44:51.154Z,92.90
2018-01-06T19:47:18.622Z,92.90
2018-01-06T19:49:46.150Z,92.80
2018-01-06T19:52:14.391Z,92.90
2018-01-06T19:54:41.860Z,92.90
2018-01-06T19:57:09.381Z,92.70
2018-01-06T19:59:36.874Z,92.80
2018-01-06T20:02:05.972Z,92.70
2018-01-06T20:04:33.595Z,92.70
2018-01-06T20:07:01.093Z,92.70
2018-01-06T20:09:28.610Z,92.60
2018-01-06T20:11:56.202Z,92.40
2018-01-06T20:14:23.714Z,92.50
2018-01-06T20:16:51.187Z,92.40
2018-01-06T20:19:18.694Z,92.50
2018-01-06T20:21:46.186Z,92.30
2018-01-06T20:24:14.424Z,92.60
2018-01-06T20:26:41.920Z,92.60
2018-01-06T20:29:10.158Z,92.50
2018-01-06T20:31:37.629Z,92.50
2018-01-06T20:34:05.113Z,92.50
2018-01-06T20:36:33.352Z,92.10
2018-01-06T20:39:00.880Z,92.10
2018-01-06T20:41:28.371Z,92.40
2018-01-06T20:43:55.898Z,92.50
2018-01-06T20:46:23.377Z,92.30
2018-01-06T20:48:50.848Z,92.20
2018-01-06T20:51:18.354Z,92.20
2018-01-06T20:53:45.914Z,92.20
2018-01-06T20:56:13.347Z,92.30
2018-01-06T20:58:41.613Z,92.00
2018-01-06T21:01:09.121Z,92.00
2018-01-06T21:03:36.629Z,92.10
2018-01-06T21:06:04.160Z,92.30
2018-01-06T21:08:31.610Z,92.30
2018-01-06T21:10:59.115Z,92.10
2018-01-06T21:13:27.368Z,92.30
2018-01-06T21:15:54.865Z,92.30
2018-01-06T21:18:23.124Z,92.30
2018-01-06T21:20:51.366Z,92.30
2018-01-06T21:23:18.891Z,92.30
2018-01-06T21:25:46.370Z,92.10
2018-01-06T21:28:13.870Z,92.50
2018-01-06T21:30:41.346Z,92.60
2018-01-06T21:33:09.608Z,92.50
2018-01-06T21:35:37.870Z,92.60
2018-01-06T21:38:05.346Z,92.60
2018-01-06T21:40:32.853Z,92.70
2018-01-06T21:43:00.332Z,92.70
2018-01-06T21:45:27.865Z,92.70
2018-01-06T21:47:55.326Z,92.80
2018-01-06T21:50:22.816Z,92.80
2018-01-06T21:52:50.380Z,92.70
2018-01-06T21:55:17.805Z,92.60
2018-01-06T21:57:45.318Z,92.60
2018-01-06T22:00:13.570Z,93.00
2018-01-06T22:02:41.022Z,93.00
2018-01-06T22:05:08.534Z,92.90
2018-01-06T22:07:36.787Z,92.80
2018-01-06T22:10:04.315Z,92.80
2018-01-06T22:12:31.801Z,92.90
2018-01-06T22:14:59.294Z,92.90
2018-01-06T22:17:26.806Z,92.90
2018-01-06T22:19:54.267Z,93.00
2018-01-06T22:22:21.749Z,92.90
2018-01-06T22:24:50.022Z,93.00
2018-01-06T22:27:17.490Z,93.00
2018-01-06T22:29:45.754Z,93.00
2018-01-06T22:32:13.244Z,93.00
2018-01-06T22:34:40.739Z,93.00
2018-01-06T22:37:08.229Z,92.90
2018-01-06T22:39:35.733Z,93.00
2018-01-06T22:42:03.207Z,93.00
2018-01-06T22:44:30.714Z,93.00
2018-01-06T22:46:58.955Z,92.60
2018-01-06T22:49:26.421Z,92.60
2018-01-06T22:51:54.697Z,92.70
2018-01-06T22:54:22.182Z,92.70
2018-01-06T22:56:50.451Z,92.80
2018-01-06T22:59:18.701Z,92.90
2018-01-06T23:01:46.221Z,92.90
2018-01-06T23:04:13.687Z,93.00
2018-01-06T23:06:41.162Z,92.80
2018-01-06T23:09:08.658Z,92.90
2018-01-06T23:11:36.179Z,92.90
2018-01-06T23:14:03.662Z,92.90
2018-01-06T23:16:31.150Z,92.90
2018-01-06T23:18:59.405Z,92.90
2018-01-06T23:21:26.888Z,92.90
2018-01-06T23:23:55.151Z,93.00
2018-01-06T23:26:23.440Z,93.00
2018-01-06T23:28:51.675Z,93.00
2018-01-06T23:31:19.138Z,93.00
2018-01-06T23:33:47.405Z,93.00
2018-01-06T23:36:14.903Z,92.90
2018-01-06T23:38:43.236Z,93.10
2018-01-06T23:41:10.740Z,93.00
2018-01-06T23:43:38.982Z,93.10
2018-01-06T23:46:06.490Z,93.10
2018-01-06T23:48:34.759Z,93.20
2018-01-06T23:51:02.985Z,93.20
2018-01-06T23:53:30.477Z,93.20
2018-01-06T23:55:57.983Z,93.20
2018-01-06T23:58:25.455Z,93.20
